Terminal Aerodrome Forecast
Issued by NWS Albany, NY

Home | Current Version | Previous Version | Text Only | Print | Product List | Glossary On
Versions: 1 2 3 4 5 6 7 8 9 10 11 12 13 14 15 16 17 18 19 20 21 22 23 24 25 26 27 28 29 30 31
984
FTUS41 KALY 260318 AAC
TAFGFL
TAF AMD
KGFL 260318Z 2603/2624 VRB03KT P6SM VCSH SCT008 OVC035
      TEMPO 2603/2605 5SM -SHSNRA BR BKN008 OVC035
     FM260500 27010KT P6SM VCSH OVC035
     FM261400 28015G25KT P6SM BKN045=

USA.gov is the U.S. government's official web portal to all federal, state and local government web resources and services.